sensor_id;sensor_type;location;lat;lon;timestamp;temperature;humidity
17442;DHT22;8838;50.144;8.176;2023-02-28T00:01:08;-0.40;99.90
17442;DHT22;8838;50.144;8.176;2023-02-28T00:03:36;-0.30;99.90
17442;DHT22;8838;50.144;8.176;2023-02-28T00:06:05;-0.20;99.90
17442;DHT22;8838;50.144;8.176;2023-02-28T00:08:32;-0.20;99.90
17442;DHT22;8838;50.144;8.176;2023-02-28T00:11:01;-0.10;99.90
17442;DHT22;8838;50.144;8.176;2023-02-28T00:13:29;-0.20;99.90
17442;DHT22;8838;50.144;8.176;2023-02-28T00:16:00;-0.20;99.90
17442;DHT22;8838;50.144;8.176;2023-02-28T00:18:27;-0.30;99.90
17442;DHT22;8838;50.144;8.176;2023-02-28T00:20:53;-0.40;99.90
17442;DHT22;8838;50.144;8.176;2023-02-28T00:23:22;-0.40;99.90
17442;DHT22;8838;50.144;8.176;2023-02-28T00:25:49;-0.40;99.90
17442;DHT22;8838;50.144;8.176;2023-02-28T00:28:16;-0.40;99.90
17442;DHT22;8838;50.144;8.176;2023-02-28T00:30:43;-0.50;99.90
17442;DHT22;8838;50.144;8.176;2023-02-28T00:33:10;-0.50;99.90
17442;DHT22;8838;50.144;8.176;2023-02-28T00:35:37;-0.60;99.90
17442;DHT22;8838;50.144;8.176;2023-02-28T00:38:04;-0.60;99.90
17442;DHT22;8838;50.144;8.176;2023-02-28T00:40:32;-0.70;99.90
17442;DHT22;8838;50.144;8.176;2023-02-28T00:42:59;-0.70;99.90
17442;DHT22;8838;50.144;8.176;2023-02-28T00:45:26;-0.80;99.90
17442;DHT22;8838;50.144;8.176;2023-02-28T00:47:53;-0.80;99.90
17442;DHT22;8838;50.144;8.176;2023-02-28T00:50:20;-0.80;99.90
17442;DHT22;8838;50.144;8.176;2023-02-28T00:52:47;-0.80;99.90
17442;DHT22;8838;50.144;8.176;2023-02-28T00:55:16;-0.80;99.90
17442;DHT22;8838;50.144;8.176;2023-02-28T00:57:45;-0.80;99.90
17442;DHT22;8838;50.144;8.176;2023-02-28T01:00:12;-0.90;99.90
17442;DHT22;8838;50.144;8.176;2023-02-28T01:02:40;-1.00;99.90
17442;DHT22;8838;50.144;8.176;2023-02-28T01:05:07;-1.10;99.90
17442;DHT22;8838;50.144;8.176;2023-02-28T01:07:34;-1.10;99.90
17442;DHT22;8838;50.144;8.176;2023-02-28T01:10:04;-1.20;99.90
17442;DHT22;8838;50.144;8.176;2023-02-28T01:12:31;-1.30;99.90
17442;DHT22;8838;50.144;8.176;2023-02-28T01:14:59;-1.40;99.90
17442;DHT22;8838;50.144;8.176;2023-02-28T01:17:26;-1.40;99.90
17442;DHT22;8838;50.144;8.176;2023-02-28T01:19:53;-1.40;99.90
17442;DHT22;8838;50.144;8.176;2023-02-28T01:22:20;-1.50;99.90
17442;DHT22;8838;50.144;8.176;2023-02-28T01:24:47;-1.50;99.90
17442;DHT22;8838;50.144;8.176;2023-02-28T01:27:14;-1.60;99.90
17442;DHT22;8838;50.144;8.176;2023-02-28T01:29:41;-1.50;99.90
17442;DHT22;8838;50.144;8.176;2023-02-28T01:32:09;-1.50;99.90
17442;DHT22;8838;50.144;8.176;2023-02-28T01:34:38;-1.60;99.90
17442;DHT22;8838;50.144;8.176;2023-02-28T01:37:04;-1.60;99.90
17442;DHT22;8838;50.144;8.176;2023-02-28T01:39:31;-1.70;99.90
17442;DHT22;8838;50.144;8.176;2023-02-28T01:41:58;-1.70;99.90
17442;DHT22;8838;50.144;8.176;2023-02-28T01:47:39;-1.80;99.90
17442;DHT22;8838;50.144;8.176;2023-02-28T01:50:11;-1.80;99.90
17442;DHT22;8838;50.144;8.176;2023-02-28T01:52:39;-1.90;99.90
17442;DHT22;8838;50.144;8.176;2023-02-28T01:55:08;-1.90;99.90
17442;DHT22;8838;50.144;8.176;2023-02-28T01:57:40;-2.00;99.90
17442;DHT22;8838;50.144;8.176;2023-02-28T02:00:10;-2.00;99.90
17442;DHT22;8838;50.144;8.176;2023-02-28T02:02:42;-1.90;99.90
17442;DHT22;8838;50.144;8.176;2023-02-28T02:05:11;-1.90;99.90
17442;DHT22;8838;50.144;8.176;2023-02-28T02:07:40;-1.90;99.90
17442;DHT22;8838;50.144;8.176;2023-02-28T02:10:12;-1.90;99.90
17442;DHT22;8838;50.144;8.176;2023-02-28T02:13:05;-2.00;99.90
17442;DHT22;8838;50.144;8.176;2023-02-28T02:15:40;-2.00;99.90
17442;DHT22;8838;50.144;8.176;2023-02-28T02:18:17;-2.10;99.90
17442;DHT22;8838;50.144;8.176;2023-02-28T02:20:58;-2.10;99.90
17442;DHT22;8838;50.144;8.176;2023-02-28T02:23:58;-2.20;99.90
17442;DHT22;8838;50.144;8.176;2023-02-28T02:26:55;-2.20;99.90
17442;DHT22;8838;50.144;8.176;2023-02-28T02:29:59;-2.30;99.90
17442;DHT22;8838;50.144;8.176;2023-02-28T02:32:53;-2.30;99.90
17442;DHT22;8838;50.144;8.176;2023-02-28T02:35:25;-2.40;99.90
17442;DHT22;8838;50.144;8.176;2023-02-28T02:37:59;-2.40;99.90
17442;DHT22;8838;50.144;8.176;2023-02-28T02:40:32;-2.40;99.90
17442;DHT22;8838;50.144;8.176;2023-02-28T02:43:02;-2.40;99.90
17442;DHT22;8838;50.144;8.176;2023-02-28T02:45:33;-2.40;99.90
17442;DHT22;8838;50.144;8.176;2023-02-28T02:48:04;-2.30;99.90
17442;DHT22;8838;50.144;8.176;2023-02-28T02:50:37;-2.20;99.90
17442;DHT22;8838;50.144;8.176;2023-02-28T02:53:06;-2.30;99.90
17442;DHT22;8838;50.144;8.176;2023-02-28T02:55:39;-2.30;99.90
17442;DHT22;8838;50.144;8.176;2023-02-28T02:58:09;-2.40;99.90
17442;DHT22;8838;50.144;8.176;2023-02-28T03:00:41;-2.40;99.90
17442;DHT22;8838;50.144;8.176;2023-02-28T03:03:09;-2.40;99.90
17442;DHT22;8838;50.144;8.176;2023-02-28T03:05:44;-2.40;99.90
17442;DHT22;8838;50.144;8.176;2023-02-28T03:08:12;-2.50;99.90
17442;DHT22;8838;50.144;8.176;2023-02-28T03:10:41;-2.50;99.90
17442;DHT22;8838;50.144;8.176;2023-02-28T03:19:05;-2.40;99.90
17442;DHT22;8838;50.144;8.176;2023-02-28T03:21:38;-2.40;99.90
17442;DHT22;8838;50.144;8.176;2023-02-28T03:24:10;-2.40;99.90
17442;DHT22;8838;50.144;8.176;2023-02-28T03:26:41;-2.40;99.90
17442;DHT22;8838;50.144;8.176;2023-02-28T03:29:15;-2.40;99.90
17442;DHT22;8838;50.144;8.176;2023-02-28T03:31:46;-2.40;99.90
17442;DHT22;8838;50.144;8.176;2023-02-28T03:34:19;-2.50;99.90
17442;DHT22;8838;50.144;8.176;2023-02-28T03:36:53;-2.50;99.90
17442;DHT22;8838;50.144;8.176;2023-02-28T03:39:26;-2.50;99.90
17442;DHT22;8838;50.144;8.176;2023-02-28T03:41:58;-2.50;99.90
17442;DHT22;8838;50.144;8.176;2023-02-28T03:44:29;-2.50;99.90
17442;DHT22;8838;50.144;8.176;2023-02-28T03:47:00;-2.50;99.90
17442;DHT22;8838;50.144;8.176;2023-02-28T03:49:31;-2.50;99.90
17442;DHT22;8838;50.144;8.176;2023-02-28T03:52:02;-2.50;99.90
17442;DHT22;8838;50.144;8.176;2023-02-28T03:54:34;-2.50;99.90
17442;DHT22;8838;50.144;8.176;2023-02-28T03:57:05;-2.50;99.90
17442;DHT22;8838;50.144;8.176;2023-02-28T03:59:41;-2.50;99.90
17442;DHT22;8838;50.144;8.176;2023-02-28T04:02:09;-2.60;99.90
17442;DHT22;8838;50.144;8.176;2023-02-28T04:04:38;-2.60;99.90
17442;DHT22;8838;50.144;8.176;2023-02-28T04:07:14;-2.70;99.90
17442;DHT22;8838;50.144;8.176;2023-02-28T04:09:41;-2.70;99.90
17442;DHT22;8838;50.144;8.176;2023-02-28T04:12:08;-2.60;99.90
17442;DHT22;8838;50.144;8.176;2023-02-28T04:14:36;-2.60;99.90
17442;DHT22;8838;50.144;8.176;2023-02-28T04:17:03;-2.50;99.90
17442;DHT22;8838;50.144;8.176;2023-02-28T04:19:30;-2.50;99.90
17442;DHT22;8838;50.144;8.176;2023-02-28T04:21:56;-2.50;99.90
17442;DHT22;8838;50.144;8.176;2023-02-28T04:24:27;-2.50;99.90
17442;DHT22;8838;50.144;8.176;2023-02-28T04:26:55;-2.50;99.90
17442;DHT22;8838;50.144;8.176;2023-02-28T04:29:24;-2.50;99.90
17442;DHT22;8838;50.144;8.176;2023-02-28T04:31:51;-2.50;99.90
17442;DHT22;8838;50.144;8.176;2023-02-28T04:34:19;-2.50;99.90
17442;DHT22;8838;50.144;8.176;2023-02-28T04:36:46;-2.50;99.90
17442;DHT22;8838;50.144;8.176;2023-02-28T04:39:14;-2.50;99.90
17442;DHT22;8838;50.144;8.176;2023-02-28T04:41:44;-2.50;99.90
17442;DHT22;8838;50.144;8.176;2023-02-28T04:44:10;-2.50;99.90
17442;DHT22;8838;50.144;8.176;2023-02-28T04:46:37;-2.50;99.90
17442;DHT22;8838;50.144;8.176;2023-02-28T04:49:04;-2.60;99.90
17442;DHT22;8838;50.144;8.176;2023-02-28T04:51:31;-2.50;99.90
17442;DHT22;8838;50.144;8.176;2023-02-28T04:53:58;-2.60;99.90
17442;DHT22;8838;50.144;8.176;2023-02-28T04:56:25;-2.60;99.90
17442;DHT22;8838;50.144;8.176;2023-02-28T04:58:53;-2.60;99.90
17442;DHT22;8838;50.144;8.176;2023-02-28T05:01:25;-2.50;99.90
17442;DHT22;8838;50.144;8.176;2023-02-28T05:03:55;-2.50;99.90
17442;DHT22;8838;50.144;8.176;2023-02-28T05:06:23;-2.60;99.90
17442;DHT22;8838;50.144;8.176;2023-02-28T05:08:50;-2.60;99.90
17442;DHT22;8838;50.144;8.176;2023-02-28T05:11:19;-2.50;99.90
17442;DHT22;8838;50.144;8.176;2023-02-28T05:13:47;-2.50;99.90
17442;DHT22;8838;50.144;8.176;2023-02-28T05:16:16;-2.50;99.90
17442;DHT22;8838;50.144;8.176;2023-02-28T05:18:43;-2.60;99.90
17442;DHT22;8838;50.144;8.176;2023-02-28T05:21:31;-2.60;99.90
17442;DHT22;8838;50.144;8.176;2023-02-28T05:24:00;-2.60;99.90
17442;DHT22;8838;50.144;8.176;2023-02-28T05:26:30;-2.60;99.90
17442;DHT22;8838;50.144;8.176;2023-02-28T05:28:57;-2.70;99.90
17442;DHT22;8838;50.144;8.176;2023-02-28T05:31:25;-2.70;99.90
17442;DHT22;8838;50.144;8.176;2023-02-28T05:33:52;-2.70;99.90
17442;DHT22;8838;50.144;8.176;2023-02-28T05:36:20;-2.60;99.90
17442;DHT22;8838;50.144;8.176;2023-02-28T05:38:47;-2.50;99.90
17442;DHT22;8838;50.144;8.176;2023-02-28T05:41:15;-2.50;99.90
17442;DHT22;8838;50.144;8.176;2023-02-28T05:43:41;-2.40;99.90
17442;DHT22;8838;50.144;8.176;2023-02-28T05:46:10;-2.30;99.90
17442;DHT22;8838;50.144;8.176;2023-02-28T05:48:40;-2.30;99.90
17442;DHT22;8838;50.144;8.176;2023-02-28T05:51:08;-2.20;99.90
17442;DHT22;8838;50.144;8.176;2023-02-28T05:53:35;-2.20;99.90
17442;DHT22;8838;50.144;8.176;2023-02-28T05:56:03;-2.10;99.90
17442;DHT22;8838;50.144;8.176;2023-02-28T05:58:30;-2.10;99.90
17442;DHT22;8838;50.144;8.176;2023-02-28T06:00:57;-2.10;99.90
17442;DHT22;8838;50.144;8.176;2023-02-28T06:03:24;-2.00;99.90
17442;DHT22;8838;50.144;8.176;2023-02-28T06:05:52;-2.00;99.90
17442;DHT22;8838;50.144;8.176;2023-02-28T06:08:19;-2.00;99.90
17442;DHT22;8838;50.144;8.176;2023-02-28T06:10:46;-1.90;99.90
17442;DHT22;8838;50.144;8.176;2023-02-28T06:13:12;-1.90;99.90
17442;DHT22;8838;50.144;8.176;2023-02-28T06:15:39;-1.80;99.90
17442;DHT22;8838;50.144;8.176;2023-02-28T06:18:07;-1.80;99.90
17442;DHT22;8838;50.144;8.176;2023-02-28T06:20:34;-1.80;99.90
17442;DHT22;8838;50.144;8.176;2023-02-28T06:23:03;-1.80;99.90
17442;DHT22;8838;50.144;8.176;2023-02-28T06:25:32;-1.80;99.90
17442;DHT22;8838;50.144;8.176;2023-02-28T06:27:59;-1.80;99.90
17442;DHT22;8838;50.144;8.176;2023-02-28T06:30:26;-1.80;99.90
17442;DHT22;8838;50.144;8.176;2023-02-28T06:32:56;-1.70;99.90
17442;DHT22;8838;50.144;8.176;2023-02-28T06:35:23;-1.80;99.90
17442;DHT22;8838;50.144;8.176;2023-02-28T06:37:53;-1.80;99.90
17442;DHT22;8838;50.144;8.176;2023-02-28T06:40:21;-1.80;99.90
17442;DHT22;8838;50.144;8.176;2023-02-28T06:42:48;-1.80;99.90
17442;DHT22;8838;50.144;8.176;2023-02-28T06:45:15;-1.80;99.90
17442;DHT22;8838;50.144;8.176;2023-02-28T06:47:42;-1.80;99.90
17442;DHT22;8838;50.144;8.176;2023-02-28T06:50:11;-1.70;99.90
17442;DHT22;8838;50.144;8.176;2023-02-28T06:52:39;-1.70;99.90
17442;DHT22;8838;50.144;8.176;2023-02-28T06:55:07;-1.70;99.90
17442;DHT22;8838;50.144;8.176;2023-02-28T06:57:36;-1.80;99.90
17442;DHT22;8838;50.144;8.176;2023-02-28T07:00:05;-1.90;99.90
17442;DHT22;8838;50.144;8.176;2023-02-28T07:02:35;-1.80;99.90
17442;DHT22;8838;50.144;8.176;2023-02-28T07:05:03;-1.80;99.90
17442;DHT22;8838;50.144;8.176;2023-02-28T07:07:30;-1.80;99.90
17442;DHT22;8838;50.144;8.176;2023-02-28T07:10:00;-1.70;99.90
17442;DHT22;8838;50.144;8.176;2023-02-28T07:12:27;-1.70;99.90
17442;DHT22;8838;50.144;8.176;2023-02-28T07:14:55;-1.80;99.90
17442;DHT22;8838;50.144;8.176;2023-02-28T07:17:22;-1.70;99.90
17442;DHT22;8838;50.144;8.176;2023-02-28T07:19:49;-1.80;99.90
17442;DHT22;8838;50.144;8.176;2023-02-28T07:22:16;-1.80;99.90
17442;DHT22;8838;50.144;8.176;2023-02-28T07:24:43;-1.70;99.90
17442;DHT22;8838;50.144;8.176;2023-02-28T07:27:10;-1.70;99.90
17442;DHT22;8838;50.144;8.176;2023-02-28T07:29:37;-1.40;99.90
17442;DHT22;8838;50.144;8.176;2023-02-28T07:32:05;-1.30;99.90
17442;DHT22;8838;50.144;8.176;2023-02-28T07:34:32;-1.30;99.90
17442;DHT22;8838;50.144;8.176;2023-02-28T07:36:59;-1.20;99.90
17442;DHT22;8838;50.144;8.176;2023-02-28T07:39:29;-1.10;99.90
17442;DHT22;8838;50.144;8.176;2023-02-28T07:41:58;-0.70;99.90
17442;DHT22;8838;50.144;8.176;2023-02-28T07:44:25;0.20;99.90
17442;DHT22;8838;50.144;8.176;2023-02-28T07:46:52;1.00;99.90
17442;DHT22;8838;50.144;8.176;2023-02-28T07:49:20;1.80;99.90
17442;DHT22;8838;50.144;8.176;2023-02-28T07:51:47;2.00;99.90
17442;DHT22;8838;50.144;8.176;2023-02-28T07:54:14;1.80;99.90
17442;DHT22;8838;50.144;8.176;2023-02-28T07:56:41;1.40;99.90
17442;DHT22;8838;50.144;8.176;2023-02-28T07:59:08;1.70;99.90
17442;DHT22;8838;50.144;8.176;2023-02-28T08:01:34;2.40;99.90
17442;DHT22;8838;50.144;8.176;2023-02-28T08:04:01;2.90;99.90
17442;DHT22;8838;50.144;8.176;2023-02-28T08:06:29;3.00;99.90
17442;DHT22;8838;50.144;8.176;2023-02-28T08:08:56;3.70;99.90
17442;DHT22;8838;50.144;8.176;2023-02-28T08:11:23;4.10;99.90
17442;DHT22;8838;50.144;8.176;2023-02-28T08:13:50;4.60;99.90
17442;DHT22;8838;50.144;8.176;2023-02-28T08:16:17;4.90;99.90
17442;DHT22;8838;50.144;8.176;2023-02-28T08:18:48;5.10;99.90
17442;DHT22;8838;50.144;8.176;2023-02-28T08:21:14;5.20;99.90
17442;DHT22;8838;50.144;8.176;2023-02-28T08:23:43;5.20;99.90
17442;DHT22;8838;50.144;8.176;2023-02-28T08:26:09;5.40;99.90
17442;DHT22;8838;50.144;8.176;2023-02-28T08:28:36;5.70;99.90
17442;DHT22;8838;50.144;8.176;2023-02-28T08:31:09;5.90;99.90
17442;DHT22;8838;50.144;8.176;2023-02-28T08:33:36;6.30;99.90
17442;DHT22;8838;50.144;8.176;2023-02-28T08:36:05;6.90;99.90
17442;DHT22;8838;50.144;8.176;2023-02-28T08:38:32;7.70;99.90
17442;DHT22;8838;50.144;8.176;2023-02-28T08:41:03;8.10;99.90
17442;DHT22;8838;50.144;8.176;2023-02-28T08:43:31;8.00;99.90
17442;DHT22;8838;50.144;8.176;2023-02-28T08:45:58;7.40;99.90
17442;DHT22;8838;50.144;8.176;2023-02-28T08:48:25;7.10;99.90
17442;DHT22;8838;50.144;8.176;2023-02-28T08:50:57;6.00;99.90
17442;DHT22;8838;50.144;8.176;2023-02-28T08:53:24;5.50;99.90
17442;DHT22;8838;50.144;8.176;2023-02-28T08:56:00;5.30;99.90
17442;DHT22;8838;50.144;8.176;2023-02-28T08:58:29;5.30;99.90
17442;DHT22;8838;50.144;8.176;2023-02-28T09:00:56;5.30;99.90
17442;DHT22;8838;50.144;8.176;2023-02-28T09:03:26;5.70;99.90
17442;DHT22;8838;50.144;8.176;2023-02-28T09:05:55;6.00;99.90
17442;DHT22;8838;50.144;8.176;2023-02-28T09:08:22;6.10;99.90
17442;DHT22;8838;50.144;8.176;2023-02-28T09:10:49;6.70;99.90
17442;DHT22;8838;50.144;8.176;2023-02-28T09:13:18;7.10;99.90
17442;DHT22;8838;50.144;8.176;2023-02-28T09:15:45;5.50;99.90
17442;DHT22;8838;50.144;8.176;2023-02-28T09:18:12;4.90;99.90
17442;DHT22;8838;50.144;8.176;2023-02-28T09:20:39;5.10;99.90
17442;DHT22;8838;50.144;8.176;2023-02-28T09:23:08;5.30;99.90
17442;DHT22;8838;50.144;8.176;2023-02-28T09:25:36;5.30;99.90
17442;DHT22;8838;50.144;8.176;2023-02-28T09:28:04;5.00;99.90
17442;DHT22;8838;50.144;8.176;2023-02-28T09:30:32;5.50;99.90
17442;DHT22;8838;50.144;8.176;2023-02-28T09:32:59;5.50;99.90
17442;DHT22;8838;50.144;8.176;2023-02-28T09:35:26;5.60;99.90
17442;DHT22;8838;50.144;8.176;2023-02-28T09:37:53;5.50;99.90
17442;DHT22;8838;50.144;8.176;2023-02-28T09:40:21;5.40;99.90
17442;DHT22;8838;50.144;8.176;2023-02-28T09:42:51;5.10;99.90
17442;DHT22;8838;50.144;8.176;2023-02-28T09:45:23;5.20;99.90
17442;DHT22;8838;50.144;8.176;2023-02-28T09:47:55;4.80;99.90
17442;DHT22;8838;50.144;8.176;2023-02-28T09:50:29;5.10;99.90
17442;DHT22;8838;50.144;8.176;2023-02-28T09:52:59;5.70;99.90
17442;DHT22;8838;50.144;8.176;2023-02-28T09:55:31;5.80;99.90
17442;DHT22;8838;50.144;8.176;2023-02-28T09:58:00;6.40;99.90
17442;DHT22;8838;50.144;8.176;2023-02-28T10:00:32;5.90;99.90
17442;DHT22;8838;50.144;8.176;2023-02-28T10:03:23;6.30;99.90
17442;DHT22;8838;50.144;8.176;2023-02-28T10:05:56;6.60;99.90
17442;DHT22;8838;50.144;8.176;2023-02-28T10:08:27;6.90;99.90
17442;DHT22;8838;50.144;8.176;2023-02-28T10:10:58;6.60;99.90
17442;DHT22;8838;50.144;8.176;2023-02-28T10:13:33;6.60;99.90
17442;DHT22;8838;50.144;8.176;2023-02-28T10:16:05;7.10;99.90
17442;DHT22;8838;50.144;8.176;2023-02-28T10:18:41;7.10;99.90
17442;DHT22;8838;50.144;8.176;2023-02-28T10:21:17;7.80;99.90
17442;DHT22;8838;50.144;8.176;2023-02-28T10:23:46;8.70;99.90
17442;DHT22;8838;50.144;8.176;2023-02-28T10:26:17;9.00;99.90
17442;DHT22;8838;50.144;8.176;2023-02-28T10:28:44;8.30;99.90
17442;DHT22;8838;50.144;8.176;2023-02-28T10:31:14;7.50;99.90
17442;DHT22;8838;50.144;8.176;2023-02-28T10:33:44;6.90;99.90
17442;DHT22;8838;50.144;8.176;2023-02-28T10:36:14;5.60;99.90
17442;DHT22;8838;50.144;8.176;2023-02-28T10:38:43;4.30;99.90
17442;DHT22;8838;50.144;8.176;2023-02-28T10:41:12;3.20;99.90
17442;DHT22;8838;50.144;8.176;2023-02-28T10:43:42;3.50;99.90
17442;DHT22;8838;50.144;8.176;2023-02-28T10:46:21;4.40;99.90
17442;DHT22;8838;50.144;8.176;2023-02-28T10:49:02;4.90;99.90
17442;DHT22;8838;50.144;8.176;2023-02-28T10:51:36;6.20;99.90
17442;DHT22;8838;50.144;8.176;2023-02-28T10:54:04;6.20;99.90
17442;DHT22;8838;50.144;8.176;2023-02-28T10:56:32;6.70;99.90
17442;DHT22;8838;50.144;8.176;2023-02-28T10:59:00;6.40;99.90
17442;DHT22;8838;50.144;8.176;2023-02-28T11:01:39;6.30;99.90
17442;DHT22;8838;50.144;8.176;2023-02-28T11:04:18;6.80;99.90
17442;DHT22;8838;50.144;8.176;2023-02-28T11:06:47;6.80;99.90
17442;DHT22;8838;50.144;8.176;2023-02-28T11:09:22;7.10;99.90
17442;DHT22;8838;50.144;8.176;2023-02-28T11:11:49;7.20;99.90
17442;DHT22;8838;50.144;8.176;2023-02-28T11:14:20;7.40;99.90
17442;DHT22;8838;50.144;8.176;2023-02-28T11:16:48;7.40;99.90
17442;DHT22;8838;50.144;8.176;2023-02-28T11:19:22;6.80;99.90
17442;DHT22;8838;50.144;8.176;2023-02-28T11:21:54;6.10;99.90
17442;DHT22;8838;50.144;8.176;2023-02-28T11:24:24;6.60;99.90
17442;DHT22;8838;50.144;8.176;2023-02-28T11:26:53;7.10;99.90
17442;DHT22;8838;50.144;8.176;2023-02-28T11:29:22;7.70;99.90
17442;DHT22;8838;50.144;8.176;2023-02-28T11:32:03;7.50;99.90
17442;DHT22;8838;50.144;8.176;2023-02-28T11:34:32;8.20;99.90
17442;DHT22;8838;50.144;8.176;2023-02-28T11:36:59;8.60;99.90
17442;DHT22;8838;50.144;8.176;2023-02-28T11:39:30;8.60;99.70
17442;DHT22;8838;50.144;8.176;2023-02-28T11:42:11;7.90;99.40
17442;DHT22;8838;50.144;8.176;2023-02-28T11:44:54;7.00;99.90
17442;DHT22;8838;50.144;8.176;2023-02-28T11:47:32;6.70;99.90
17442;DHT22;8838;50.144;8.176;2023-02-28T11:50:22;6.60;99.90
17442;DHT22;8838;50.144;8.176;2023-02-28T11:52:54;7.60;99.90
17442;DHT22;8838;50.144;8.176;2023-02-28T11:55:26;7.90;99.90
17442;DHT22;8838;50.144;8.176;2023-02-28T11:58:12;8.40;99.90
17442;DHT22;8838;50.144;8.176;2023-02-28T12:00:58;8.40;99.80
17442;DHT22;8838;50.144;8.176;2023-02-28T12:03:33;8.60;99.70
17442;DHT22;8838;50.144;8.176;2023-02-28T12:06:15;9.10;98.60
17442;DHT22;8838;50.144;8.176;2023-02-28T12:08:49;9.00;99.00
17442;DHT22;8838;50.144;8.176;2023-02-28T12:11:28;8.90;98.80
17442;DHT22;8838;50.144;8.176;2023-02-28T12:14:12;8.20;98.60
17442;DHT22;8838;50.144;8.176;2023-02-28T12:16:49;8.00;99.40
17442;DHT22;8838;50.144;8.176;2023-02-28T12:19:21;7.40;99.90
17442;DHT22;8838;50.144;8.176;2023-02-28T12:22:28;7.00;99.90
17442;DHT22;8838;50.144;8.176;2023-02-28T12:25:18;6.70;99.90
17442;DHT22;8838;50.144;8.176;2023-02-28T12:27:48;6.40;99.90
17442;DHT22;8838;50.144;8.176;2023-02-28T12:30:18;6.30;99.90
17442;DHT22;8838;50.144;8.176;2023-02-28T12:32:47;6.00;99.90
17442;DHT22;8838;50.144;8.176;2023-02-28T12:35:19;5.20;99.90
17442;DHT22;8838;50.144;8.176;2023-02-28T12:37:52;5.30;99.90
17442;DHT22;8838;50.144;8.176;2023-02-28T12:40:23;5.10;99.90
17442;DHT22;8838;50.144;8.176;2023-02-28T12:42:55;5.20;99.90
17442;DHT22;8838;50.144;8.176;2023-02-28T12:45:26;5.10;99.90
17442;DHT22;8838;50.144;8.176;2023-02-28T12:47:58;4.90;99.90
17442;DHT22;8838;50.144;8.176;2023-02-28T12:50:27;5.00;99.90
17442;DHT22;8838;50.144;8.176;2023-02-28T12:53:00;5.10;99.90
17442;DHT22;8838;50.144;8.176;2023-02-28T12:55:33;5.10;99.90
17442;DHT22;8838;50.144;8.176;2023-02-28T12:58:10;5.00;99.90
17442;DHT22;8838;50.144;8.176;2023-02-28T13:00:48;5.10;99.90
17442;DHT22;8838;50.144;8.176;2023-02-28T13:03:37;5.20;99.90
17442;DHT22;8838;50.144;8.176;2023-02-28T13:06:28;5.30;99.90
17442;DHT22;8838;50.144;8.176;2023-02-28T13:09:03;5.50;99.90
17442;DHT22;8838;50.144;8.176;2023-02-28T13:11:32;5.80;99.90
17442;DHT22;8838;50.144;8.176;2023-02-28T13:14:03;5.80;99.90
17442;DHT22;8838;50.144;8.176;2023-02-28T13:17:01;6.00;99.90
17442;DHT22;8838;50.144;8.176;2023-02-28T13:19:31;5.90;99.90
17442;DHT22;8838;50.144;8.176;2023-02-28T13:21:59;5.90;99.90
17442;DHT22;8838;50.144;8.176;2023-02-28T13:24:43;5.80;99.90
17442;DHT22;8838;50.144;8.176;2023-02-28T13:27:20;5.60;99.90
17442;DHT22;8838;50.144;8.176;2023-02-28T13:29:51;5.50;99.90
17442;DHT22;8838;50.144;8.176;2023-02-28T13:35:17;5.60;99.90
17442;DHT22;8838;50.144;8.176;2023-02-28T13:38:22;5.80;99.90
17442;DHT22;8838;50.144;8.176;2023-02-28T13:40:51;5.90;99.90
17442;DHT22;8838;50.144;8.176;2023-02-28T13:43:18;5.80;99.90
17442;DHT22;8838;50.144;8.176;2023-02-28T13:46:08;5.90;99.90
17442;DHT22;8838;50.144;8.176;2023-02-28T13:48:37;5.80;99.90
17442;DHT22;8838;50.144;8.176;2023-02-28T13:51:37;5.90;99.90
17442;DHT22;8838;50.144;8.176;2023-02-28T13:54:23;6.10;99.90
17442;DHT22;8838;50.144;8.176;2023-02-28T13:57:02;6.20;99.90
17442;DHT22;8838;50.144;8.176;2023-02-28T13:59:34;6.30;99.90
17442;DHT22;8838;50.144;8.176;2023-02-28T14:02:29;6.40;99.90
17442;DHT22;8838;50.144;8.176;2023-02-28T14:05:04;6.20;99.90
17442;DHT22;8838;50.144;8.176;2023-02-28T14:07:36;6.10;99.90
17442;DHT22;8838;50.144;8.176;2023-02-28T14:10:07;6.30;99.90
17442;DHT22;8838;50.144;8.176;2023-02-28T14:13:01;6.30;99.90
17442;DHT22;8838;50.144;8.176;2023-02-28T14:15:46;6.20;99.90
17442;DHT22;8838;50.144;8.176;2023-02-28T14:18:31;6.00;99.90
17442;DHT22;8838;50.144;8.176;2023-02-28T14:21:08;5.80;99.90
17442;DHT22;8838;50.144;8.176;2023-02-28T14:26:48;5.90;99.90
17442;DHT22;8838;50.144;8.176;2023-02-28T14:29:38;5.90;99.90
17442;DHT22;8838;50.144;8.176;2023-02-28T14:32:15;6.20;99.90
17442;DHT22;8838;50.144;8.176;2023-02-28T14:34:53;6.40;99.90
17442;DHT22;8838;50.144;8.176;2023-02-28T14:37:26;6.60;99.90
17442;DHT22;8838;50.144;8.176;2023-02-28T14:39:53;6.40;99.90
17442;DHT22;8838;50.144;8.176;2023-02-28T14:42:29;6.30;99.90
17442;DHT22;8838;50.144;8.176;2023-02-28T14:44:58;6.40;99.90
17442;DHT22;8838;50.144;8.176;2023-02-28T14:47:28;6.30;99.90
17442;DHT22;8838;50.144;8.176;2023-02-28T14:49:55;6.00;99.90
17442;DHT22;8838;50.144;8.176;2023-02-28T14:52:24;6.10;99.90
17442;DHT22;8838;50.144;8.176;2023-02-28T14:54:55;6.10;99.90
17442;DHT22;8838;50.144;8.176;2023-02-28T14:57:25;6.10;99.90
17442;DHT22;8838;50.144;8.176;2023-02-28T15:00:03;6.30;99.90
17442;DHT22;8838;50.144;8.176;2023-02-28T15:02:37;6.60;99.90
17442;DHT22;8838;50.144;8.176;2023-02-28T15:05:19;6.70;99.90
17442;DHT22;8838;50.144;8.176;2023-02-28T15:07:59;7.00;99.90
17442;DHT22;8838;50.144;8.176;2023-02-28T15:10:27;6.60;99.90
17442;DHT22;8838;50.144;8.176;2023-02-28T15:12:55;6.70;99.90
17442;DHT22;8838;50.144;8.176;2023-02-28T15:15:32;6.50;99.90
17442;DHT22;8838;50.144;8.176;2023-02-28T15:18:03;6.30;99.90
17442;DHT22;8838;50.144;8.176;2023-02-28T15:20:32;6.20;99.90
17442;DHT22;8838;50.144;8.176;2023-02-28T15:22:59;6.20;99.90
17442;DHT22;8838;50.144;8.176;2023-02-28T15:25:27;5.90;99.90
17442;DHT22;8838;50.144;8.176;2023-02-28T15:27:55;6.00;99.90
17442;DHT22;8838;50.144;8.176;2023-02-28T15:30:26;6.00;99.90
17442;DHT22;8838;50.144;8.176;2023-02-28T15:33:06;5.60;99.90
17442;DHT22;8838;50.144;8.176;2023-02-28T15:35:37;5.60;99.90
17442;DHT22;8838;50.144;8.176;2023-02-28T15:38:14;5.30;99.90
17442;DHT22;8838;50.144;8.176;2023-02-28T15:40:43;5.00;99.90
17442;DHT22;8838;50.144;8.176;2023-02-28T15:43:14;5.10;99.90
17442;DHT22;8838;50.144;8.176;2023-02-28T15:45:45;5.00;99.90
17442;DHT22;8838;50.144;8.176;2023-02-28T15:48:17;4.90;99.90
17442;DHT22;8838;50.144;8.176;2023-02-28T15:50:47;4.80;99.90
17442;DHT22;8838;50.144;8.176;2023-02-28T15:53:17;4.60;99.90
17442;DHT22;8838;50.144;8.176;2023-02-28T15:55:54;4.40;99.90
17442;DHT22;8838;50.144;8.176;2023-02-28T15:58:22;4.40;99.90
17442;DHT22;8838;50.144;8.176;2023-02-28T16:01:05;4.40;99.90
17442;DHT22;8838;50.144;8.176;2023-02-28T16:03:39;4.30;99.90
17442;DHT22;8838;50.144;8.176;2023-02-28T16:06:30;4.10;99.90
17442;DHT22;8838;50.144;8.176;2023-02-28T16:08:58;3.90;99.90
17442;DHT22;8838;50.144;8.176;2023-02-28T16:11:25;3.90;99.90
17442;DHT22;8838;50.144;8.176;2023-02-28T16:13:52;3.90;99.90
17442;DHT22;8838;50.144;8.176;2023-02-28T16:16:23;3.90;99.90
17442;DHT22;8838;50.144;8.176;2023-02-28T16:18:51;3.70;99.90
17442;DHT22;8838;50.144;8.176;2023-02-28T16:21:20;3.80;99.90
17442;DHT22;8838;50.144;8.176;2023-02-28T16:23:49;3.70;99.90
17442;DHT22;8838;50.144;8.176;2023-02-28T16:26:21;3.70;99.90
17442;DHT22;8838;50.144;8.176;2023-02-28T16:28:49;3.60;99.90
17442;DHT22;8838;50.144;8.176;2023-02-28T16:31:17;3.60;99.90
17442;DHT22;8838;50.144;8.176;2023-02-28T16:33:46;3.60;99.90
17442;DHT22;8838;50.144;8.176;2023-02-28T16:36:15;3.50;99.90